Time;durP1;ratioP1;P1;durP2;ratioP2;P2;SDS_P1;SDS_P2;PMS_P1;PMS_P2;Temp;Humidity;BMP_temperature;BMP_pressure;BME280_temperature;BME280_humidity;BME280_pressure;Samples;Min_cycle;Max_cycle;Signal;HPM_P1;HPM_P2
2021/12/14 00:00:39;;;;;;;0.63;0.60;;;20.40;29.00;20.90;94803.00;;;;10276506;28;46065;-62
2021/12/14 00:05:42;;;;;;;1.50;0.60;;;20.40;29.00;20.90;94795.00;;;;10275638;28;46468;-64
2021/12/14 00:11:23;;;;;;;1.20;0.70;;;20.40;29.00;20.80;94795.00;;;;10276138;28;45444;-62
2021/12/14 00:16:19;;;;;;;0.50;0.50;;;20.40;29.00;20.80;94820.00;;;;10247166;28;45425;-62
2021/12/14 00:21:29;;;;;;;0.68;0.60;;;20.40;28.90;20.80;94796.00;;;;10219743;28;47047;-62
2021/12/14 00:26:31;;;;;;;0.50;0.50;;;20.30;28.90;20.80;94816.00;;;;10235542;28;45355;-63
2021/12/14 00:31:35;;;;;;;0.73;0.60;;;20.30;28.90;20.80;94813.00;;;;10219309;28;46955;-64
2021/12/14 00:36:37;;;;;;;1.35;0.70;;;20.30;28.90;20.80;94819.00;;;;10218431;28;47436;-63
2021/12/14 00:41:39;;;;;;;0.80;0.52;;;20.30;28.90;20.80;94804.00;;;;10218953;28;47264;-63
2021/12/14 00:46:40;;;;;;;0.80;0.60;;;20.30;28.80;20.80;94818.00;;;;10273793;28;48015;-64
2021/12/14 00:51:42;;;;;;;1.70;0.80;;;20.30;28.80;20.80;94790.00;;;;10316113;28;46380;-63
2021/12/14 00:56:46;;;;;;;1.05;0.68;;;20.30;28.80;20.80;94812.00;;;;10313661;28;45656;-62
2021/12/14 01:02:10;;;;;;;0.70;0.60;;;20.40;28.80;20.80;94807.00;;;;10298281;28;46649;-63
2021/12/14 01:07:15;;;;;;;1.02;0.70;;;20.40;28.80;20.80;94825.00;;;;10314291;28;45345;-62
2021/12/14 01:12:32;;;;;;;1.20;0.73;;;20.30;28.80;20.80;94804.00;;;;10303986;28;45273;-63
2021/12/14 01:17:54;;;;;;;0.85;0.60;;;20.30;28.80;20.80;94802.00;;;;10273783;28;45251;-62
2021/12/14 01:23:00;;;;;;;0.65;0.50;;;20.30;28.70;20.80;94819.00;;;;10273520;28;47634;-63
2021/12/14 01:28:10;;;;;;;0.50;0.47;;;20.30;28.70;20.80;94818.00;;;;10272853;28;47944;-63
2021/12/14 01:33:13;;;;;;;0.80;0.60;;;20.30;28.70;20.80;94823.00;;;;10273638;28;45471;-63
2021/12/14 01:38:47;;;;;;;0.75;0.50;;;20.30;28.70;20.80;94822.00;;;;10315149;22;46776;-62
2021/12/14 01:43:57;;;;;;;0.75;0.50;;;20.30;28.70;20.80;94838.00;;;;10353663;28;46088;-63
2021/12/14 01:49:05;;;;;;;0.52;0.50;;;20.30;28.70;20.80;94829.00;;;;10314329;28;45180;-62
2021/12/14 01:54:09;;;;;;;0.63;0.47;;;20.30;28.70;20.80;94845.00;;;;10313836;28;45557;-61
2021/12/14 01:59:27;;;;;;;0.63;0.52;;;20.30;28.70;20.80;94842.00;;;;10310394;28;45375;-63
2021/12/14 02:04:28;;;;;;;0.55;0.40;;;20.30;28.70;20.80;94833.00;;;;10308290;28;45619;-64
2021/12/14 02:09:32;;;;;;;0.80;0.50;;;20.30;28.60;20.80;94840.00;;;;10311404;28;48183;-63
2021/12/14 02:14:33;;;;;;;0.60;0.60;;;20.30;28.60;20.80;94842.00;;;;10351159;28;45341;-64
2021/12/14 02:19:34;;;;;;;0.88;0.50;;;20.30;28.70;20.80;94855.00;;;;10353506;28;45231;-64
2021/12/14 02:24:41;;;;;;;0.63;0.47;;;20.30;28.60;20.80;94842.00;;;;10369792;28;46537;-62
2021/12/14 02:29:47;;;;;;;0.43;0.43;;;20.30;28.60;20.80;94847.00;;;;10369132;28;45430;-63
2021/12/14 02:35:02;;;;;;;0.60;0.40;;;20.30;28.60;20.80;94830.00;;;;10369805;28;46117;-62
2021/12/14 02:40:20;;;;;;;0.30;0.30;;;20.30;28.60;20.80;94837.00;;;;10368611;28;45537;-62
2021/12/14 02:45:23;;;;;;;0.85;0.45;;;20.30;28.60;20.70;94835.00;;;;10368317;28;45658;-63
2021/12/14 02:50:24;;;;;;;0.93;0.40;;;20.30;28.60;20.70;94830.00;;;;10352920;28;46484;-63
2021/12/14 02:55:27;;;;;;;0.40;0.40;;;20.20;28.50;20.80;94816.00;;;;10351817;28;45425;-64
2021/12/14 03:00:47;;;;;;;0.52;0.30;;;20.30;28.60;20.70;94821.00;;;;10353547;28;46302;-61
2021/12/14 03:05:49;;;;;;;0.50;0.30;;;20.20;28.60;20.80;94816.00;;;;10351919;28;45949;-62
2021/12/14 03:11:12;;;;;;;0.70;0.30;;;20.30;28.60;20.70;94827.00;;;;10351901;28;48010;-62
2021/12/14 03:16:29;;;;;;;0.30;0.30;;;20.20;28.50;20.70;94817.00;;;;10328150;28;47605;-62
2021/12/14 03:21:41;;;;;;;0.20;0.20;;;20.20;28.50;20.70;94817.00;;;;10318197;28;47175;-63
2021/12/14 03:26:48;;;;;;;0.68;0.40;;;20.20;28.50;20.70;94827.00;;;;10301103;28;46921;-63
2021/12/14 03:31:55;;;;;;;0.68;0.30;;;20.20;28.50;20.70;94830.00;;;;10301540;28;48085;-63
2021/12/14 03:37:00;;;;;;;;;;;20.20;28.50;20.70;94822.00;;;;10316967;28;45389;-63
2021/12/14 03:42:09;;;;;;;0.30;0.30;;;20.20;28.50;20.70;94835.00;;;;10316742;28;45172;-63
2021/12/14 03:47:19;;;;;;;0.20;0.20;;;20.20;28.50;20.70;94826.00;;;;10344175;28;45265;-61
2021/12/14 03:52:29;;;;;;;0.43;0.30;;;20.20;28.50;20.70;94828.00;;;;10357638;28;45377;-61
2021/12/14 03:57:30;;;;;;;0.52;0.30;;;20.20;28.50;20.70;94835.00;;;;10357125;28;47976;-60
2021/12/14 04:02:31;;;;;;;0.57;0.32;;;20.20;28.50;20.70;94836.00;;;;10358081;28;46872;-60
2021/12/14 04:07:36;;;;;;;0.73;0.22;;;20.20;28.50;20.70;94827.00;;;;10358818;28;45327;-60
2021/12/14 04:12:36;;;;;;;0.32;0.30;;;20.20;28.50;20.70;94832.00;;;;10357293;28;45492;-60
2021/12/14 04:17:39;;;;;;;0.35;0.35;;;20.20;28.50;20.70;94846.00;;;;10357141;28;45569;-60
2021/12/14 04:22:41;;;;;;;0.52;0.30;;;20.20;28.50;20.70;94826.00;;;;10357470;28;45551;-59
2021/12/14 04:27:43;;;;;;;0.30;0.30;;;20.20;28.50;20.70;94826.00;;;;10357067;28;45392;-59
2021/12/14 04:32:53;;;;;;;0.30;0.20;;;20.20;28.50;20.70;94842.00;;;;10357164;28;45231;-59
2021/12/14 04:37:58;;;;;;;0.30;0.15;;;20.20;28.60;20.70;94832.00;;;;10356456;28;45474;-60
2021/12/14 04:54:03;;;;;;;0.32;0.30;;;20.20;28.60;20.70;94824.00;;;;10355961;28;45248;-61
2021/12/14 04:59:17;;;;;;;0.40;0.22;;;20.20;28.60;20.70;94836.00;;;;10355338;28;47091;-60
2021/12/14 05:04:23;;;;;;;0.50;0.40;;;20.20;28.60;20.70;94833.00;;;;10355693;28;45390;-60
2021/12/14 05:09:34;;;;;;;0.60;0.30;;;20.20;28.60;20.80;94830.00;;;;10356836;28;45471;-61
2021/12/14 05:14:38;;;;;;;1.08;0.40;;;20.30;28.70;20.80;94832.00;;;;10354195;28;47810;-61
2021/12/14 05:19:42;;;;;;;0.30;0.30;;;20.30;28.60;20.90;94825.00;;;;10353372;28;45332;-61
2021/12/14 05:24:48;;;;;;;0.30;0.30;;;20.40;28.60;20.90;94839.00;;;;10371100;28;45330;-62
2021/12/14 05:29:49;;;;;;;0.68;0.20;;;20.40;28.60;20.90;94829.00;;;;10354231;28;45207;-61
2021/12/14 05:34:50;;;;;;;0.30;0.30;;;20.40;28.50;21.00;94840.00;;;;10370650;28;48035;-62
2021/12/14 05:40:00;;;;;;;0.60;0.30;;;20.50;28.50;21.00;94836.00;;;;10368953;28;46963;-61
2021/12/14 05:45:16;;;;;;;1.48;0.40;;;20.50;28.50;21.00;94830.00;;;;10353620;28;47205;-61
2021/12/14 05:50:27;;;;;;;0.50;0.40;;;20.50;28.40;21.00;94855.00;;;;10354047;28;45429;-61
2021/12/14 05:55:34;;;;;;;0.70;0.50;;;20.50;28.40;21.10;94842.00;;;;10353498;28;45062;-61
2021/12/14 06:00:34;;;;;;;;;;;20.60;28.40;21.10;94845.00;;;;10354105;28;46245;-61
2021/12/14 06:05:35;;;;;;;0.82;0.55;;;20.60;28.40;21.10;94838.00;;;;10352271;28;47867;-61
2021/12/14 06:10:36;;;;;;;1.02;0.75;;;20.60;28.30;21.10;94857.00;;;;10352823;28;46989;-61
2021/12/14 06:15:37;;;;;;;0.70;0.52;;;20.60;28.30;21.10;94851.00;;;;10354243;28;45436;-61
2021/12/14 06:20:43;;;;;;;0.63;0.60;;;20.60;28.30;21.10;94848.00;;;;10352724;28;46217;-62
2021/12/14 06:25:44;;;;;;;0.98;0.60;;;20.60;28.20;21.10;94838.00;;;;10352301;28;46719;-60
2021/12/14 06:30:46;;;;;;;1.05;0.60;;;20.60;28.20;21.10;94834.00;;;;10352266;28;45374;-62
2021/12/14 06:35:50;;;;;;;1.25;0.85;;;20.60;28.10;21.20;94848.00;;;;10352598;28;45426;-59
2021/12/14 06:41:02;;;;;;;0.75;0.70;;;20.70;28.10;21.20;94838.00;;;;10353968;28;46561;-61
2021/12/14 06:46:17;;;;;;;0.80;0.77;;;20.70;28.10;21.20;94835.00;;;;10367889;28;47483;-61
2021/12/14 06:51:29;;;;;;;1.00;0.90;;;20.70;28.10;21.20;94821.00;;;;10353365;28;46582;-62
2021/12/14 06:56:33;;;;;;;1.38;1.05;;;20.70;28.00;21.20;94824.00;;;;10375061;28;46968;-62
2021/12/14 07:01:43;;;;;;;1.40;0.90;;;20.70;27.90;21.20;94823.00;;;;10342745;28;47614;-61
2021/12/14 07:06:53;;;;;;;1.38;1.00;;;20.70;27.90;21.20;94788.00;;;;10358362;28;45263;-62
2021/12/14 07:12:06;;;;;;;1.30;1.05;;;20.70;27.90;21.20;94806.00;;;;10358298;28;45477;-61
2021/12/14 07:17:18;;;;;;;1.67;1.00;;;20.70;28.00;21.20;94827.00;;;;10357579;28;47135;-61
2021/12/14 07:27:43;;;;;;;2.47;1.10;;;20.70;28.00;21.30;94817.00;;;;10358650;28;45160;-62
2021/12/14 07:33:09;;;;;;;1.70;1.10;;;20.80;28.00;21.30;94821.00;;;;10358095;28;46324;-62
2021/12/14 07:38:10;;;;;;;1.73;1.00;;;20.80;28.00;21.30;94817.00;;;;10394705;22;45570;-64
2021/12/14 07:43:24;;;;;;;1.60;1.10;;;20.80;28.00;21.30;94833.00;;;;10358559;28;45214;-63
2021/12/14 07:48:48;;;;;;;1.88;1.10;;;20.80;28.00;21.30;94845.00;;;;10337043;28;45535;-64
2021/12/14 07:54:49;;;;;;;1.42;1.08;;;20.80;28.10;21.30;94843.00;;;;10316562;28;45474;-64
2021/12/14 08:00:35;;;;;;;1.85;1.27;;;20.80;28.20;21.30;94854.00;;;;10306376;28;47103;-64
2021/12/14 08:05:45;;;;;;;1.08;0.88;;;20.80;28.20;21.30;94842.00;;;;10215177;28;46193;-63
2021/12/14 08:11:28;;;;;;;1.50;1.17;;;20.80;28.20;21.40;94848.00;;;;10293179;28;45299;-62
2021/12/14 08:16:57;;;;;;;1.08;0.88;;;20.80;28.20;21.40;94868.00;;;;10274913;28;45234;-63
2021/12/14 08:22:04;;;;;;;1.20;0.90;;;20.90;28.20;21.40;94865.00;;;;10275126;28;47339;-63
2021/12/14 08:27:07;;;;;;;1.75;1.20;;;20.90;28.20;21.40;94878.00;;;;10275971;28;45393;-61
2021/12/14 08:32:15;;;;;;;1.88;0.98;;;20.90;28.20;21.40;94856.00;;;;10274911;28;45589;-63
2021/12/14 08:37:22;;;;;;;1.25;1.10;;;20.90;28.20;21.40;94867.00;;;;10273623;28;46912;-62
2021/12/14 08:42:39;;;;;;;1.40;1.02;;;20.90;28.20;21.40;94867.00;;;;10274698;28;45348;-64
2021/12/14 08:47:41;;;;;;;1.65;1.20;;;20.90;28.10;21.40;94882.00;;;;10300722;28;47142;-62
2021/12/14 08:52:42;;;;;;;1.75;1.17;;;20.90;28.10;21.40;94872.00;;;;10315130;28;45254;-62
2021/12/14 08:57:43;;;;;;;1.15;1.00;;;20.90;28.10;21.40;94875.00;;;;10314717;28;47179;-63
2021/12/14 09:02:46;;;;;;;2.05;1.10;;;20.90;28.10;21.40;94868.00;;;;10314499;28;45193;-64
2021/12/14 09:07:46;;;;;;;1.35;1.05;;;20.90;28.10;21.40;94899.00;;;;10298375;28;47098;-63
2021/12/14 09:12:50;;;;;;;1.77;1.20;;;20.90;28.00;21.40;94891.00;;;;10315009;28;45141;-62
2021/12/14 09:17:52;;;;;;;1.50;1.20;;;20.90;28.00;21.40;94872.00;;;;10312856;28;46786;-62
2021/12/14 09:23:00;;;;;;;3.13;1.30;;;20.90;28.00;21.40;94880.00;;;;10314108;28;45549;-64
2021/12/14 09:28:04;;;;;;;2.05;1.20;;;20.90;28.00;21.40;94876.00;;;;10312571;28;45184;-62
2021/12/14 09:33:05;;;;;;;4.45;3.40;;;20.90;27.90;20.30;94887.00;;;;10314928;28;45658;-62
2021/12/14 09:38:12;;;;;;;2.45;2.10;;;20.40;27.50;21.00;94893.00;;;;10313536;28;45670;-61
2021/12/14 09:43:13;;;;;;;2.25;1.70;;;20.50;27.50;21.20;94872.00;;;;10296929;28;46947;-60
2021/12/14 09:48:25;;;;;;;2.22;1.60;;;20.60;27.50;21.30;94881.00;;;;10313020;28;45235;-61
2021/12/14 09:53:28;;;;;;;1.40;1.10;;;20.70;27.50;21.30;94871.00;;;;10313644;28;45649;-61
2021/12/14 09:58:37;;;;;;;1.58;1.30;;;20.80;27.40;21.40;94866.00;;;;10313184;28;45564;-61
2021/12/14 10:03:40;;;;;;;1.67;1.20;;;20.80;27.50;21.40;94884.00;;;;10313498;28;45595;-63
2021/12/14 10:08:51;;;;;;;1.70;1.30;;;20.90;27.50;21.40;94878.00;;;;10311654;28;46402;-64
2021/12/14 10:13:55;;;;;;;0.90;0.80;;;20.90;27.50;21.40;94865.00;;;;10312895;28;46580;-65
2021/12/14 10:19:05;;;;;;;0.95;0.88;;;20.90;27.50;21.40;94847.00;;;;10311750;28;45577;-61
2021/12/14 10:24:09;;;;;;;1.10;1.00;;;20.90;27.50;21.40;94859.00;;;;10296201;28;48323;-66
2021/12/14 10:29:10;;;;;;;1.40;0.80;;;20.90;27.50;21.40;94840.00;;;;10310569;28;45344;-64
2021/12/14 10:34:21;;;;;;;1.00;0.90;;;20.90;27.80;21.40;94825.00;;;;10311754;28;46566;-65
2021/12/14 10:44:40;;;;;;;1.50;1.10;;;20.90;28.40;21.50;94800.00;;;;10311794;28;45265;-63
2021/12/14 10:49:42;;;;;;;1.27;1.00;;;20.90;27.90;21.40;94822.00;;;;10295032;28;47433;-63
2021/12/14 10:54:52;;;;;;;1.63;1.20;;;21.00;28.00;21.50;94803.00;;;;10311932;28;45420;-63
2021/12/14 10:59:56;;;;;;;1.10;1.00;;;21.00;28.10;21.40;94790.00;;;;10310941;28;45172;-62
2021/12/14 11:04:59;;;;;;;1.40;1.05;;;21.00;28.20;21.50;94793.00;;;;10294682;28;46808;-63
2021/12/14 11:10:20;;;;;;;1.65;1.00;;;21.00;28.20;21.50;94785.00;;;;10310441;28;47742;-62
2021/12/14 11:15:26;;;;;;;1.13;1.02;;;21.00;28.30;21.50;94776.00;;;;10313061;28;46055;-66
2021/12/14 11:20:33;;;;;;;1.00;0.90;;;21.00;28.40;21.50;94769.00;;;;10314287;28;46709;-68
2021/12/14 11:25:45;;;;;;;1.35;0.98;;;21.00;28.30;21.50;94781.00;;;;10310412;28;47162;-63
2021/12/14 11:31:23;;;;;;;0.80;0.77;;;21.00;28.30;21.50;94766.00;;;;10312509;28;45402;-63
2021/12/14 11:36:45;;;;;;;;;;;21.00;28.40;21.50;94783.00;;;;10308684;28;45324;-62
2021/12/14 11:41:54;;;;;;;1.02;0.80;;;21.00;28.60;21.50;94785.00;;;;10318055;28;46198;-61
2021/12/14 11:47:04;;;;;;;0.85;0.70;;;21.00;28.60;21.50;94776.00;;;;10312228;28;46363;-61
2021/12/14 11:52:05;;;;;;;1.77;0.80;;;21.10;28.60;21.50;94775.00;;;;10317366;28;47817;-66
2021/12/14 11:57:07;;;;;;;1.00;0.88;;;21.10;28.70;21.60;94782.00;;;;10315183;28;45528;-68
2021/12/14 12:02:09;;;;;;;2.35;1.02;;;21.10;28.70;21.50;94766.00;;;;10298622;28;47362;-63
2021/12/14 12:12:30;;;;;;;2.08;1.30;;;21.00;28.50;21.50;94771.00;;;;10316722;28;45149;-65
2021/12/14 12:17:46;;;;;;;2.10;1.37;;;21.00;28.20;21.50;94751.00;;;;10314546;28;48232;-65
2021/12/14 12:22:52;;;;;;;1.80;1.17;;;21.00;27.90;21.50;94774.00;;;;10299748;28;46869;-62
2021/12/14 12:28:15;;;;;;;1.40;0.90;;;21.00;27.90;21.50;94764.00;;;;10316396;28;45324;-62
2021/12/14 12:33:34;;;;;;;1.95;1.40;;;21.00;27.80;21.50;94757.00;;;;10315351;28;47125;-62
2021/12/14 12:38:53;;;;;;;1.77;1.40;;;21.00;27.80;21.50;94773.00;;;;10313354;28;45521;-62
2021/12/14 12:44:20;;;;;;;2.47;1.40;;;21.00;28.30;21.50;94771.00;;;;10315281;28;47023;-62
2021/12/14 12:49:27;;;;;;;1.85;1.52;;;21.00;27.80;21.40;94768.00;;;;10304146;28;45579;-62
2021/12/14 12:54:33;;;;;;;1.98;1.60;;;20.90;27.80;21.40;94775.00;;;;10316699;28;45494;-62
2021/12/14 12:59:55;;;;;;;2.15;1.42;;;20.90;27.70;21.50;94779.00;;;;10315727;28;45420;-62
2021/12/14 13:05:15;;;;;;;2.55;1.67;;;20.90;27.70;21.40;94787.00;;;;10314804;28;45260;-62
2021/12/14 13:10:42;;;;;;;1.80;1.40;;;20.90;27.70;21.40;94783.00;;;;10296456;28;46688;-60
2021/12/14 13:16:05;;;;;;;1.65;1.42;;;20.90;27.60;21.40;94791.00;;;;10314007;28;45191;-61
2021/12/14 13:21:47;;;;;;;2.10;1.50;;;20.90;27.60;21.40;94780.00;;;;10290005;28;45235;-63
2021/12/14 13:26:56;;;;;;;1.98;1.58;;;20.90;27.60;21.40;94791.00;;;;10330245;28;45391;-61
2021/12/14 13:32:05;;;;;;;3.05;1.75;;;20.90;27.50;21.40;94783.00;;;;10316147;28;46114;-61
2021/12/14 13:37:08;;;;;;;2.60;1.70;;;20.90;27.40;21.40;94793.00;;;;10314858;28;45603;-61
2021/12/14 13:42:12;;;;;;;1.98;1.52;;;20.90;27.40;21.40;94790.00;;;;10314095;28;45596;-62
2021/12/14 13:47:13;;;;;;;2.75;1.95;;;20.90;27.40;21.40;94773.00;;;;10314906;28;45193;-62
2021/12/14 13:52:17;;;;;;;2.75;1.70;;;20.90;27.30;21.40;94787.00;;;;10297497;28;48467;-61
2021/12/14 13:57:17;;;;;;;3.55;2.00;;;20.90;27.20;21.40;94784.00;;;;10312624;28;45194;-61
2021/12/14 14:02:18;;;;;;;3.00;1.73;;;20.90;27.50;21.50;94790.00;;;;10310148;28;46439;-62
2021/12/14 14:07:21;;;;;;;2.70;1.80;;;21.00;27.90;21.50;94775.00;;;;10312578;28;45277;-61
2021/12/14 14:12:23;;;;;;;4.50;2.33;;;21.00;27.80;21.50;94797.00;;;;10313789;28;46473;-61
2021/12/14 14:17:29;;;;;;;4.65;2.25;;;21.00;27.70;21.50;94793.00;;;;10313345;28;46065;-63
2021/12/14 14:22:38;;;;;;;3.40;2.33;;;21.00;27.70;21.50;94785.00;;;;10312621;28;46443;-62
2021/12/14 14:27:53;;;;;;;4.45;2.50;;;21.00;27.70;21.50;94786.00;;;;10312058;28;45326;-67
2021/12/14 14:33:20;;;;;;;4.47;2.85;;;21.00;27.90;21.50;94807.00;;;;10313619;28;45160;-63
2021/12/14 14:38:44;;;;;;;6.35;3.80;;;21.00;27.80;21.40;94789.00;;;;10295599;28;47101;-64
2021/12/14 14:44:01;;;;;;;5.95;3.78;;;21.00;27.50;21.30;94797.00;;;;10311499;28;45495;-61
2021/12/14 14:49:03;;;;;;;4.78;3.33;;;20.90;27.10;21.30;94809.00;;;;10312898;28;45643;-62
2021/12/14 14:54:32;;;;;;;4.78;3.63;;;20.80;27.10;21.30;94802.00;;;;10311696;28;45304;-62
2021/12/14 14:59:34;;;;;;;5.13;2.97;;;20.80;27.10;21.30;94802.00;;;;10312301;28;46498;-62
2021/12/14 15:05:24;;;;;;;5.00;3.13;;;20.80;27.10;21.30;94825.00;;;;10310947;28;45415;-61
2021/12/14 15:10:38;;;;;;;5.40;3.00;;;20.80;27.10;21.30;94825.00;;;;10312200;28;46378;-62
2021/12/14 15:16:09;;;;;;;7.20;3.55;;;20.80;27.20;21.30;94819.00;;;;10315060;28;45650;-61
2021/12/14 15:21:40;;;;;;;4.90;3.03;;;20.80;27.70;21.40;94812.00;;;;10315038;28;45621;-65
2021/12/14 15:26:41;;;;;;;4.75;3.03;;;20.80;27.20;21.40;94809.00;;;;10315279;28;45306;-63
2021/12/14 15:31:47;;;;;;;4.97;3.50;;;20.90;27.40;21.40;94820.00;;;;10300801;28;46707;-63
2021/12/14 15:36:48;;;;;;;4.65;3.10;;;20.90;27.40;21.40;94838.00;;;;10315898;28;46716;-65
2021/12/14 15:41:48;;;;;;;4.80;2.97;;;20.90;27.40;21.40;94843.00;;;;10317615;28;46882;-63
2021/12/14 15:47:04;;;;;;;4.00;3.00;;;20.90;27.30;21.40;94841.00;;;;10300341;28;47054;-62
2021/12/14 15:52:20;;;;;;;5.32;3.10;;;20.90;27.40;21.40;94836.00;;;;10317870;28;47430;-60
2021/12/14 15:57:23;;;;;;;4.70;2.95;;;20.90;27.30;21.40;94845.00;;;;10300057;28;46875;-61
2021/12/14 16:02:31;;;;;;;4.40;2.92;;;20.90;27.40;21.40;94833.00;;;;10313610;28;45439;-63
2021/12/14 16:07:38;;;;;;;3.55;2.35;;;20.90;27.90;21.50;94841.00;;;;10313367;28;45166;-64
2021/12/14 16:17:58;;;;;;;3.33;2.10;;;21.00;28.40;21.50;94844.00;;;;10317613;28;45226;-69
2021/12/14 16:23:03;;;;;;;4.45;3.20;;;21.00;28.60;21.50;94839.00;;;;10316827;28;45214;-67
2021/12/14 16:28:10;;;;;;;6.07;2.78;;;21.00;28.30;21.40;94852.00;;;;10299714;28;47121;-69
2021/12/14 16:33:17;;;;;;;4.00;2.58;;;21.00;28.40;21.50;94840.00;;;;10299442;28;47129;-70
2021/12/14 16:38:26;;;;;;;4.85;2.80;;;21.00;28.40;21.50;94833.00;;;;10332024;28;45232;-65
2021/12/14 16:43:42;;;;;;;4.10;2.92;;;21.00;28.50;21.50;94831.00;;;;10317104;28;46699;-64
2021/12/14 16:48:44;;;;;;;4.03;2.90;;;21.10;28.50;21.60;94822.00;;;;10316614;28;45397;-64
2021/12/14 16:53:53;;;;;;;4.45;2.90;;;21.10;28.70;21.60;94834.00;;;;10314998;28;46475;-63
2021/12/14 16:59:09;;;;;;;4.32;2.97;;;21.10;28.80;21.50;94840.00;;;;10316406;28;45252;-63
2021/12/14 17:04:11;;;;;;;5.00;2.83;;;21.10;28.80;21.50;94847.00;;;;10316223;28;45450;-63
2021/12/14 17:09:14;;;;;;;3.80;2.88;;;21.10;28.70;21.50;94858.00;;;;10311924;28;46934;-63
2021/12/14 17:14:23;;;;;;;4.25;2.90;;;21.00;28.60;21.50;94860.00;;;;10310120;28;45203;-63
2021/12/14 17:19:24;;;;;;;4.05;2.90;;;21.00;28.60;21.50;94843.00;;;;10314405;28;45365;-63
2021/12/14 17:24:30;;;;;;;3.75;2.70;;;21.00;28.50;21.50;94857.00;;;;10315713;28;45324;-63
2021/12/14 17:29:34;;;;;;;4.33;2.63;;;21.10;28.50;21.60;94862.00;;;;10314556;28;45454;-65
2021/12/14 17:34:39;;;;;;;4.78;3.00;;;21.00;28.60;21.60;94882.00;;;;10296521;28;47190;-63
2021/12/14 17:39:46;;;;;;;4.50;2.90;;;21.10;28.60;21.60;94884.00;;;;10311232;28;45270;-70
2021/12/14 17:44:53;;;;;;;3.90;2.83;;;21.10;28.80;21.60;94890.00;;;;10297185;28;47521;-66
2021/12/14 17:50:18;;;;;;;4.45;2.92;;;21.10;28.60;21.60;94878.00;;;;10296865;28;47784;-63
2021/12/14 17:55:36;;;;;;;3.80;2.90;;;21.10;28.60;21.60;94893.00;;;;10313840;28;45394;-64
2021/12/14 18:01:02;;;;;;;4.63;3.05;;;21.10;28.60;21.60;94890.00;;;;10307434;28;45417;-64
2021/12/14 18:06:17;;;;;;;4.32;2.80;;;21.10;28.60;21.60;94900.00;;;;10311578;28;45230;-66
2021/12/14 18:11:37;;;;;;;3.30;2.60;;;21.10;29.10;21.60;94887.00;;;;10308862;28;45590;-65
2021/12/14 18:16:54;;;;;;;4.13;2.72;;;21.10;28.80;21.60;94901.00;;;;10311382;28;45850;-66
2021/12/14 18:22:06;;;;;;;3.60;2.42;;;21.10;28.70;21.50;94881.00;;;;10312681;28;46016;-66
2021/12/14 18:27:14;;;;;;;3.75;2.72;;;21.10;28.60;21.50;94898.00;;;;10267343;28;47202;-66
2021/12/14 18:32:19;;;;;;;3.88;2.83;;;21.00;28.60;21.50;94887.00;;;;10296048;28;48012;-66
2021/12/14 18:37:28;;;;;;;3.80;2.58;;;21.00;28.60;21.50;94904.00;;;;10311885;28;45318;-66
2021/12/14 18:42:35;;;;;;;3.35;2.50;;;21.00;28.60;21.50;94872.00;;;;10297238;28;47015;-66
2021/12/14 18:53:21;;;;;;;3.65;2.40;;;21.00;28.80;21.50;94893.00;;;;10312203;28;45173;-66
2021/12/14 18:58:45;;;;;;;3.93;2.70;;;21.00;28.80;21.50;94894.00;;;;10295662;28;47287;-66
2021/12/14 19:04:09;;;;;;;3.03;2.30;;;21.00;28.80;21.50;94891.00;;;;10295432;28;47063;-66
2021/12/14 19:09:26;;;;;;;3.50;2.55;;;21.00;28.80;21.50;94886.00;;;;10311536;28;46281;-66
2021/12/14 19:14:26;;;;;;;;;;;21.00;28.80;21.50;94883.00;;;;10295986;28;47609;-66
2021/12/14 19:19:30;;;;;;;3.47;2.40;;;21.00;28.90;21.50;94877.00;;;;10310889;28;46836;-66
2021/12/14 19:24:31;;;;;;;2.85;2.30;;;21.00;28.80;21.50;94897.00;;;;10294773;28;47052;-66
2021/12/14 19:29:39;;;;;;;3.08;2.17;;;21.00;28.90;21.50;94875.00;;;;10310747;28;46452;-66
2021/12/14 19:35:00;;;;;;;3.03;2.10;;;21.10;28.90;21.50;94888.00;;;;10294493;28;48134;-66
2021/12/14 19:40:23;;;;;;;3.08;2.08;;;21.00;28.90;21.50;94887.00;;;;10310154;28;47381;-66
2021/12/14 19:45:28;;;;;;;3.50;2.55;;;21.00;28.90;21.50;94872.00;;;;10293911;28;47021;-65
2021/12/14 19:50:32;;;;;;;2.80;2.03;;;21.00;28.90;21.50;94872.00;;;;10310344;28;45389;-66
2021/12/14 19:55:34;;;;;;;3.00;2.00;;;21.00;28.90;21.50;94882.00;;;;10293617;28;47879;-67
2021/12/14 20:00:52;;;;;;;2.90;2.05;;;21.00;28.80;21.50;94889.00;;;;10314607;28;45307;-66
2021/12/14 20:06:05;;;;;;;2.90;2.10;;;21.00;28.80;21.50;94888.00;;;;10315903;28;46922;-67
2021/12/14 20:11:11;;;;;;;2.50;2.20;;;21.00;28.80;21.50;94913.00;;;;10316998;28;45171;-67
2021/12/14 20:16:14;;;;;;;2.72;1.90;;;21.00;28.70;21.50;94894.00;;;;10316845;28;45363;-66
2021/12/14 20:21:24;;;;;;;3.13;1.92;;;21.00;28.70;21.50;94913.00;;;;10300278;28;47711;-67
2021/12/14 20:26:32;;;;;;;2.53;1.90;;;21.00;28.70;21.50;94924.00;;;;10316305;28;46093;-67
2021/12/14 20:31:53;;;;;;;2.72;1.98;;;21.00;28.70;21.50;94911.00;;;;10300372;28;46529;-66
2021/12/14 20:36:54;;;;;;;3.17;2.10;;;20.90;28.60;21.50;94897.00;;;;10298952;28;47038;-67
2021/12/14 20:42:04;;;;;;;2.47;2.00;;;20.90;28.60;21.50;94893.00;;;;10299777;28;47171;-67
2021/12/14 20:47:08;;;;;;;2.75;1.90;;;20.90;28.60;21.50;94896.00;;;;10299311;28;47035;-67
2021/12/14 20:52:29;;;;;;;2.58;1.90;;;20.90;28.60;21.50;94892.00;;;;10315515;28;46568;-67
2021/12/14 20:57:45;;;;;;;2.33;1.85;;;21.00;28.60;21.50;94900.00;;;;10298721;28;47236;-67
2021/12/14 21:02:48;;;;;;;2.60;1.85;;;21.00;28.60;21.50;94884.00;;;;10314813;28;45416;-67
2021/12/14 21:07:50;;;;;;;2.40;1.70;;;20.90;28.50;21.50;94895.00;;;;10296620;28;46983;-67
2021/12/14 21:12:54;;;;;;;2.25;1.80;;;20.90;28.50;21.40;94896.00;;;;10313870;28;45321;-67
2021/12/14 21:18:00;;;;;;;3.10;1.95;;;20.90;28.40;21.40;94903.00;;;;10314398;28;47155;-67
2021/12/14 21:23:05;;;;;;;2.33;1.60;;;20.90;28.40;21.40;94893.00;;;;10298096;28;46890;-67
2021/12/14 21:28:10;;;;;;;3.05;1.75;;;20.90;28.40;21.40;94899.00;;;;10313939;28;47259;-67
2021/12/14 21:33:20;;;;;;;2.08;1.50;;;20.90;28.30;21.40;94915.00;;;;10314347;28;46898;-67
2021/12/14 21:38:38;;;;;;;2.35;1.70;;;20.90;28.30;21.30;94908.00;;;;10297272;28;47244;-67
2021/12/14 21:48:50;;;;;;;3.70;1.83;;;20.80;28.30;21.30;94896.00;;;;10313745;28;45481;-66
2021/12/14 21:53:52;;;;;;;2.28;1.75;;;20.80;28.30;21.30;94874.00;;;;10312857;28;45214;-67
2021/12/14 21:58:54;;;;;;;2.28;1.80;;;20.80;28.20;21.20;94892.00;;;;10307653;28;45541;-67
2021/12/14 22:03:57;;;;;;;3.55;1.67;;;20.80;28.20;21.20;94889.00;;;;10296502;28;47105;-66
2021/12/14 22:08:58;;;;;;;2.60;1.70;;;20.70;28.20;21.20;94895.00;;;;10296404;28;47150;-66
2021/12/14 22:14:06;;;;;;;2.25;1.50;;;20.70;28.20;21.20;94885.00;;;;10313376;28;45317;-67
2021/12/14 22:19:15;;;;;;;1.90;1.58;;;20.70;28.20;21.20;94907.00;;;;10312477;28;47828;-65
2021/12/14 22:24:16;;;;;;;2.05;1.58;;;20.70;28.20;21.20;94902.00;;;;10312408;28;46921;-66
2021/12/14 22:29:17;;;;;;;2.42;1.60;;;20.60;28.20;21.10;94895.00;;;;10328664;28;45583;-67
2021/12/14 22:34:18;;;;;;;2.25;1.55;;;20.60;28.10;21.10;94902.00;;;;10313915;28;45427;-66
2021/12/14 22:39:19;;;;;;;2.58;1.30;;;20.60;28.10;21.10;94917.00;;;;10328289;28;46384;-66
2021/12/14 22:44:21;;;;;;;1.88;1.50;;;20.60;28.20;21.10;94899.00;;;;10328961;28;46350;-66
2021/12/14 22:49:34;;;;;;;2.30;1.60;;;20.60;28.20;21.10;94907.00;;;;10313199;28;45110;-65
2021/12/14 22:54:42;;;;;;;1.50;1.30;;;20.60;28.10;21.10;94924.00;;;;10312082;28;46959;-66
2021/12/14 22:59:43;;;;;;;1.80;1.27;;;20.60;28.10;21.10;94918.00;;;;10327931;28;45526;-66
2021/12/14 23:04:46;;;;;;;2.13;1.50;;;20.60;28.10;21.10;94934.00;;;;10311892;28;47335;-67
2021/12/14 23:09:58;;;;;;;2.30;1.42;;;20.60;28.10;21.00;94942.00;;;;10311332;28;46978;-66
2021/12/14 23:15:10;;;;;;;1.63;1.33;;;20.60;28.10;21.00;94925.00;;;;10311571;28;46280;-67
2021/12/14 23:20:11;;;;;;;2.03;1.50;;;20.50;28.00;21.00;94947.00;;;;10311167;28;47128;-66